Diretta Meteo Rimini, Italiamartedì 22 agosto ore 04:45

Mappa
Sereno 24 °C Sereno 24 Ore: T.min 18 T.max 28
Ponente Est/Nord-Est Km/h 22.2 Punto di rugiada: 11 °C Umidità: 43% Visibilità: 10 Km
Il sole sorge alle: 06:20 Il sole tramonta alle: 20:03
22 Agosto 2017 04:45 tempo osservato: Sereno Sereno 24 43 1018 vento: Nord E/NE 22.2
22 Agosto 2017 04:15 tempo osservato: Sereno Sereno 24 50 1019 vento: Nord E/NE 24
22 Agosto 2017 03:45 tempo osservato: Sereno Sereno 23 56 1019 vento: Nord E/NE 25.9
22 Agosto 2017 03:15 tempo osservato: Sereno Sereno 21 60 1019 vento: Nord E/NE 22.2
22 Agosto 2017 02:45 tempo osservato: Sereno Sereno 18 77 1019 vento: Nord N 0
22 Agosto 2017 02:15 tempo osservato: Sereno Sereno 18 77 1019 vento: Nord N 1.8
22 Agosto 2017 01:45 tempo osservato: Sereno Sereno 18 77 1019 vento: Nord N 3.7
22 Agosto 2017 01:15 tempo osservato: Sereno Sereno 18 77 1019 vento: Nord N 0
22 Agosto 2017 00:45 tempo osservato: Sereno Sereno 18 77 1019 vento: Nord N 3.7
22 Agosto 2017 00:15 tempo osservato: Sereno Sereno 18 77 1019 vento: Nord N 1.8
21 Agosto 2017 23:45 tempo osservato: Sereno Sereno 19 68 1019 vento: Nord N 5.5
21 Agosto 2017 23:15 tempo osservato: Sereno Sereno 20 68 1018 vento: Nord N 3.7
21 Agosto 2017 22:45 tempo osservato: Sereno Sereno 21 64 1018 vento: Nord N 5.5
21 Agosto 2017 22:15 tempo osservato: Sereno Sereno 22 60 1018 vento: Nord S/SO 7.4
21 Agosto 2017 21:45 tempo osservato: Sereno Sereno 23 53 1018 vento: Nord N 0
21 Agosto 2017 21:15 tempo osservato: Sereno Sereno 24 47 1018 vento: Nord N 0
21 Agosto 2017 20:45 tempo osservato: Sereno Sereno 24 43 1018 vento: Nord N 3.7
21 Agosto 2017 20:15 tempo osservato: Sereno Sereno 25 44 1018 vento: Nord N 3.7
21 Agosto 2017 19:45 tempo osservato: Sereno Sereno 26 39 1018 vento: Nord N 5.5
21 Agosto 2017 19:15 tempo osservato: Sereno Sereno 26 39 1017 vento: Nord N/NE 7.4
21 Agosto 2017 18:45 tempo osservato: Sereno Sereno 26 39 1017 vento: Nord N/NE 11.1
21 Agosto 2017 18:15 tempo osservato: Sereno Sereno 26 39 1018 vento: Nord N 11.1
21 Agosto 2017 17:45 tempo osservato: Sereno Sereno 27 39 1017 vento: Nord NE 11.1
21 Agosto 2017 17:15 tempo osservato: Sereno Sereno 27 39 1017 vento: Nord N 7.4
21 Agosto 2017 16:45 tempo osservato: Sereno Sereno 27 39 1017 vento: Nord N 9.3
21 Agosto 2017 16:15 tempo osservato: Sereno Sereno 27 39 1018 vento: Nord NE 11.1
21 Agosto 2017 15:45 tempo osservato: Sereno Sereno 27 39 1018 vento: Nord N/NE 13
21 Agosto 2017 15:15 tempo osservato: Sereno Sereno 28 39 1018 vento: Nord N/NE 14.8
21 Agosto 2017 14:45 tempo osservato: Sereno Sereno 27 39 1019 vento: Nord N/NE 14.8
21 Agosto 2017 14:15 tempo osservato: Sereno Sereno 27 44 1019 vento: Nord NE 18.5
21 Agosto 2017 13:45 tempo osservato: Sereno Sereno 27 44 1019 vento: Nord NE 20.3
21 Agosto 2017 13:15 tempo osservato: Sereno Sereno 27 44 1019 vento: Nord NE 22.2
21 Agosto 2017 12:45 tempo osservato: Sereno Sereno 26 47 1019 vento: Nord N/NE 24
21 Agosto 2017 12:15 tempo osservato: Sereno Sereno 26 50 1019 vento: Nord NE 24
21 Agosto 2017 11:45 tempo osservato: Sereno Sereno 26 50 1019 vento: Nord N/NE 25.9
21 Agosto 2017 11:15 tempo osservato: Sereno Sereno 26 50 1019 vento: Nord NE 25.9
21 Agosto 2017 10:45 tempo osservato: Sereno Sereno 26 47 1019 vento: Nord NE 24
21 Agosto 2017 10:15 tempo osservato: Sereno Sereno 25 50 1019 vento: Nord NE 24
21 Agosto 2017 09:45 tempo osservato: Sereno Sereno 25 53 1019 vento: Nord NE 25.9
21 Agosto 2017 09:15 tempo osservato: Sereno Sereno 25 53 1019 vento: Nord NE 27.8
21 Agosto 2017 08:45 tempo osservato: Sereno Sereno 25 53 1019 vento: Nord NE 25.9
21 Agosto 2017 08:15 tempo osservato: Sereno Sereno 24 53 1019 vento: Nord NE 22.2
21 Agosto 2017 07:45 tempo osservato: Poco Nuvoloso Poco Nuvoloso 24 57 1018 vento: Nord NE 24
21 Agosto 2017 07:15 tempo osservato: Poco Nuvoloso Poco Nuvoloso 24 53 1018 vento: Nord NE 25.9
21 Agosto 2017 06:45 tempo osservato: Sereno Sereno 23 56 1018 vento: Nord NE 25.9
21 Agosto 2017 06:15 tempo osservato: Sereno Sereno 23 60 1018 vento: Nord N/NE 18.5
21 Agosto 2017 05:45 tempo osservato: Sereno Sereno 23 60 1018 vento: Nord NE 16.7